sensor_id;sensor_type;location;lat;lon;timestamp;pressure;altitude;pressure_sealevel;temperature;humidity
48810;BME280;40070;47.322;18.784;2023-02-04T00:01:19;1000.15;;;5.65;69.54
48810;BME280;40070;47.322;18.784;2023-02-04T00:03:21;1000.19;;;5.62;69.95
48810;BME280;40070;47.322;18.784;2023-02-04T00:05:24;1000.20;;;5.72;69.61
48810;BME280;40070;47.322;18.784;2023-02-04T00:07:26;1000.10;;;5.75;69.72
48810;BME280;40070;47.322;18.784;2023-02-04T00:09:28;1000.11;;;5.76;69.61
48810;BME280;40070;47.322;18.784;2023-02-04T00:11:31;1000.10;;;5.82;69.45
48810;BME280;40070;47.322;18.784;2023-02-04T00:13:33;1000.13;;;5.74;69.88
48810;BME280;40070;47.322;18.784;2023-02-04T00:15:35;1000.12;;;5.72;70.10
48810;BME280;40070;47.322;18.784;2023-02-04T00:17:38;1000.12;;;5.68;70.31
48810;BME280;40070;47.322;18.784;2023-02-04T00:19:40;1000.13;;;5.71;70.39
48810;BME280;40070;47.322;18.784;2023-02-04T00:21:43;1000.07;;;5.74;70.39
48810;BME280;40070;47.322;18.784;2023-02-04T00:23:45;1000.17;;;5.63;71.05
48810;BME280;40070;47.322;18.784;2023-02-04T00:25:47;1000.26;;;5.69;70.97
48810;BME280;40070;47.322;18.784;2023-02-04T00:27:50;1000.17;;;5.73;71.10
48810;BME280;40070;47.322;18.784;2023-02-04T00:29:52;1000.24;;;5.74;71.03
48810;BME280;40070;47.322;18.784;2023-02-04T00:31:55;1000.25;;;5.76;71.15
48810;BME280;40070;47.322;18.784;2023-02-04T00:33:57;1000.21;;;5.79;71.20
48810;BME280;40070;47.322;18.784;2023-02-04T00:35:59;1000.13;;;5.78;71.38
48810;BME280;40070;47.322;18.784;2023-02-04T00:38:02;1000.17;;;5.71;71.59
48810;BME280;40070;47.322;18.784;2023-02-04T00:40:04;1000.09;;;5.74;71.58
48810;BME280;40070;47.322;18.784;2023-02-04T00:42:07;1000.09;;;5.69;71.79
48810;BME280;40070;47.322;18.784;2023-02-04T00:44:09;1000.10;;;5.70;71.93
48810;BME280;40070;47.322;18.784;2023-02-04T00:46:12;1000.04;;;5.69;71.93
48810;BME280;40070;47.322;18.784;2023-02-04T00:48:14;999.97;;;5.76;71.77
48810;BME280;40070;47.322;18.784;2023-02-04T00:50:16;1000.03;;;5.72;71.92
48810;BME280;40070;47.322;18.784;2023-02-04T00:52:19;999.98;;;5.72;71.80
48810;BME280;40070;47.322;18.784;2023-02-04T00:54:21;999.98;;;5.73;71.70
48810;BME280;40070;47.322;18.784;2023-02-04T00:56:23;999.93;;;5.79;71.75
48810;BME280;40070;47.322;18.784;2023-02-04T00:58:26;999.90;;;5.78;71.48
48810;BME280;40070;47.322;18.784;2023-02-04T01:00:28;999.87;;;5.69;71.79
48810;BME280;40070;47.322;18.784;2023-02-04T01:02:30;999.81;;;5.77;71.64
48810;BME280;40070;47.322;18.784;2023-02-04T01:04:33;999.84;;;5.73;71.79
48810;BME280;40070;47.322;18.784;2023-02-04T01:06:35;999.81;;;5.64;72.20
48810;BME280;40070;47.322;18.784;2023-02-04T01:08:38;999.78;;;5.69;71.99
48810;BME280;40070;47.322;18.784;2023-02-04T01:10:40;999.81;;;5.60;72.43
48810;BME280;40070;47.322;18.784;2023-02-04T01:12:43;999.82;;;5.71;72.02
48810;BME280;40070;47.322;18.784;2023-02-04T01:14:45;999.86;;;5.76;71.93
48810;BME280;40070;47.322;18.784;2023-02-04T01:16:47;999.80;;;5.89;71.47
48810;BME280;40070;47.322;18.784;2023-02-04T01:18:50;999.81;;;5.86;71.56
48810;BME280;40070;47.322;18.784;2023-02-04T01:20:52;999.82;;;5.75;71.68
48810;BME280;40070;47.322;18.784;2023-02-04T01:22:54;999.87;;;5.83;71.26
48810;BME280;40070;47.322;18.784;2023-02-04T01:24:57;999.91;;;5.95;71.13
48810;BME280;40070;47.322;18.784;2023-02-04T01:26:59;999.92;;;6.01;70.39
48810;BME280;40070;47.322;18.784;2023-02-04T01:29:01;999.92;;;5.97;70.31
48810;BME280;40070;47.322;18.784;2023-02-04T01:31:04;999.97;;;6.02;70.27
48810;BME280;40070;47.322;18.784;2023-02-04T01:33:06;999.99;;;6.12;69.78
48810;BME280;40070;47.322;18.784;2023-02-04T01:35:09;999.97;;;6.18;69.78
48810;BME280;40070;47.322;18.784;2023-02-04T01:37:11;999.98;;;6.21;69.17
48810;BME280;40070;47.322;18.784;2023-02-04T01:39:13;999.97;;;6.11;69.37
48810;BME280;40070;47.322;18.784;2023-02-04T01:41:16;1000.02;;;6.33;69.13
48810;BME280;40070;47.322;18.784;2023-02-04T01:43:19;1000.05;;;6.17;68.63
48810;BME280;40070;47.322;18.784;2023-02-04T01:45:21;1000.07;;;6.24;68.38
48810;BME280;40070;47.322;18.784;2023-02-04T01:47:24;1000.07;;;6.30;68.52
48810;BME280;40070;47.322;18.784;2023-02-04T01:49:26;1000.03;;;6.22;68.43
48810;BME280;40070;47.322;18.784;2023-02-04T01:51:29;1000.02;;;6.49;68.06
48810;BME280;40070;47.322;18.784;2023-02-04T01:53:32;1000.10;;;6.38;68.14
48810;BME280;40070;47.322;18.784;2023-02-04T01:55:35;1000.12;;;6.58;67.88
48810;BME280;40070;47.322;18.784;2023-02-04T01:57:37;1000.08;;;6.39;68.29
48810;BME280;40070;47.322;18.784;2023-02-04T01:59:41;1000.07;;;6.39;68.47
48810;BME280;40070;47.322;18.784;2023-02-04T02:01:45;1000.09;;;6.43;68.31
48810;BME280;40070;47.322;18.784;2023-02-04T02:03:47;1000.10;;;6.33;68.78
48810;BME280;40070;47.322;18.784;2023-02-04T02:05:50;1000.07;;;6.41;68.69
48810;BME280;40070;47.322;18.784;2023-02-04T02:07:54;1000.13;;;6.58;68.18
48810;BME280;40070;47.322;18.784;2023-02-04T02:09:58;1000.07;;;6.70;67.75
48810;BME280;40070;47.322;18.784;2023-02-04T02:12:00;1000.05;;;6.68;67.72
48810;BME280;40070;47.322;18.784;2023-02-04T02:14:04;1000.01;;;6.56;67.77
48810;BME280;40070;47.322;18.784;2023-02-04T02:16:06;999.97;;;6.68;67.39
48810;BME280;40070;47.322;18.784;2023-02-04T02:18:09;999.94;;;6.42;68.08
48810;BME280;40070;47.322;18.784;2023-02-04T02:20:13;999.94;;;6.53;68.00
48810;BME280;40070;47.322;18.784;2023-02-04T02:22:19;999.84;;;6.53;68.06
48810;BME280;40070;47.322;18.784;2023-02-04T02:24:28;999.81;;;6.41;67.87
48810;BME280;40070;47.322;18.784;2023-02-04T02:26:31;999.80;;;6.36;67.99
48810;BME280;40070;47.322;18.784;2023-02-04T02:28:33;999.80;;;6.34;67.90
48810;BME280;40070;47.322;18.784;2023-02-04T02:30:36;999.77;;;6.28;67.74
48810;BME280;40070;47.322;18.784;2023-02-04T02:32:38;999.82;;;6.10;68.40
48810;BME280;40070;47.322;18.784;2023-02-04T02:34:41;999.77;;;6.23;67.60
48810;BME280;40070;47.322;18.784;2023-02-04T02:36:44;999.67;;;6.20;67.42
48810;BME280;40070;47.322;18.784;2023-02-04T02:38:46;999.73;;;6.22;67.15
48810;BME280;40070;47.322;18.784;2023-02-04T02:40:49;999.74;;;6.24;66.93
48810;BME280;40070;47.322;18.784;2023-02-04T02:42:51;999.77;;;6.22;66.89
48810;BME280;40070;47.322;18.784;2023-02-04T02:44:55;999.71;;;6.15;67.07
48810;BME280;40070;47.322;18.784;2023-02-04T02:46:57;999.71;;;6.19;67.26
48810;BME280;40070;47.322;18.784;2023-02-04T02:49:00;999.70;;;6.24;66.79
48810;BME280;40070;47.322;18.784;2023-02-04T02:51:02;999.71;;;6.17;66.51
48810;BME280;40070;47.322;18.784;2023-02-04T02:53:09;999.73;;;6.28;66.46
48810;BME280;40070;47.322;18.784;2023-02-04T02:55:12;999.69;;;6.30;66.21
48810;BME280;40070;47.322;18.784;2023-02-04T02:57:17;999.71;;;6.35;65.71
48810;BME280;40070;47.322;18.784;2023-02-04T02:59:20;999.64;;;6.30;65.87
48810;BME280;40070;47.322;18.784;2023-02-04T03:01:22;999.59;;;6.22;66.20
48810;BME280;40070;47.322;18.784;2023-02-04T03:03:32;999.63;;;6.16;66.54
48810;BME280;40070;47.322;18.784;2023-02-04T03:05:36;999.60;;;6.18;66.23
48810;BME280;40070;47.322;18.784;2023-02-04T03:07:40;999.57;;;6.19;66.49
48810;BME280;40070;47.322;18.784;2023-02-04T03:09:42;999.62;;;6.15;66.30
48810;BME280;40070;47.322;18.784;2023-02-04T03:11:44;999.61;;;6.28;66.30
48810;BME280;40070;47.322;18.784;2023-02-04T03:13:47;999.70;;;6.23;65.99
48810;BME280;40070;47.322;18.784;2023-02-04T03:15:50;999.62;;;6.29;66.17
48810;BME280;40070;47.322;18.784;2023-02-04T03:17:53;999.59;;;6.28;65.87
48810;BME280;40070;47.322;18.784;2023-02-04T03:19:56;999.40;;;6.31;65.56
48810;BME280;40070;47.322;18.784;2023-02-04T03:21:59;999.59;;;6.29;65.68
48810;BME280;40070;47.322;18.784;2023-02-04T03:24:01;999.63;;;6.31;65.78
48810;BME280;40070;47.322;18.784;2023-02-04T03:26:04;999.51;;;6.40;65.51
48810;BME280;40070;47.322;18.784;2023-02-04T03:28:07;999.47;;;6.32;65.84
48810;BME280;40070;47.322;18.784;2023-02-04T03:30:10;999.46;;;6.32;66.24
48810;BME280;40070;47.322;18.784;2023-02-04T03:32:12;999.35;;;6.31;65.92
48810;BME280;40070;47.322;18.784;2023-02-04T03:34:15;999.40;;;6.26;66.28
48810;BME280;40070;47.322;18.784;2023-02-04T03:36:17;999.38;;;6.28;66.59
48810;BME280;40070;47.322;18.784;2023-02-04T03:38:19;999.39;;;6.32;66.56
48810;BME280;40070;47.322;18.784;2023-02-04T03:40:22;999.34;;;6.19;66.54
48810;BME280;40070;47.322;18.784;2023-02-04T03:42:24;999.25;;;6.24;66.61
48810;BME280;40070;47.322;18.784;2023-02-04T03:44:26;999.22;;;6.24;66.69
48810;BME280;40070;47.322;18.784;2023-02-04T03:46:29;999.18;;;6.31;66.80
48810;BME280;40070;47.322;18.784;2023-02-04T03:48:31;999.12;;;6.21;67.12
48810;BME280;40070;47.322;18.784;2023-02-04T03:50:33;999.07;;;6.23;66.85
48810;BME280;40070;47.322;18.784;2023-02-04T03:52:36;999.03;;;6.30;66.76
48810;BME280;40070;47.322;18.784;2023-02-04T03:54:38;999.05;;;6.41;66.47
48810;BME280;40070;47.322;18.784;2023-02-04T03:56:41;998.78;;;6.33;66.33
48810;BME280;40070;47.322;18.784;2023-02-04T03:58:43;998.99;;;6.33;66.60
48810;BME280;40070;47.322;18.784;2023-02-04T04:00:45;998.94;;;6.23;67.28
48810;BME280;40070;47.322;18.784;2023-02-04T04:02:48;998.94;;;6.21;67.42
48810;BME280;40070;47.322;18.784;2023-02-04T04:04:50;998.93;;;6.13;67.85
48810;BME280;40070;47.322;18.784;2023-02-04T04:06:52;999.01;;;6.24;67.39
48810;BME280;40070;47.322;18.784;2023-02-04T04:08:55;999.01;;;6.27;67.68
48810;BME280;40070;47.322;18.784;2023-02-04T04:10:57;998.99;;;6.17;68.13
48810;BME280;40070;47.322;18.784;2023-02-04T04:12:59;998.90;;;6.24;68.17
48810;BME280;40070;47.322;18.784;2023-02-04T04:15:02;998.96;;;6.22;67.96
48810;BME280;40070;47.322;18.784;2023-02-04T04:17:04;999.04;;;6.32;67.69
48810;BME280;40070;47.322;18.784;2023-02-04T04:19:07;998.90;;;6.31;67.31
48810;BME280;40070;47.322;18.784;2023-02-04T04:21:09;998.92;;;6.29;67.41
48810;BME280;40070;47.322;18.784;2023-02-04T04:23:11;998.85;;;6.42;67.18
48810;BME280;40070;47.322;18.784;2023-02-04T04:25:14;998.85;;;6.34;67.21
48810;BME280;40070;47.322;18.784;2023-02-04T04:27:16;998.82;;;6.39;66.36
48810;BME280;40070;47.322;18.784;2023-02-04T04:29:18;998.68;;;6.32;66.50
48810;BME280;40070;47.322;18.784;2023-02-04T04:31:21;998.67;;;6.42;65.66
48810;BME280;40070;47.322;18.784;2023-02-04T04:33:23;998.74;;;6.37;65.09
48810;BME280;40070;47.322;18.784;2023-02-04T04:35:25;998.56;;;6.42;65.06
48810;BME280;40070;47.322;18.784;2023-02-04T04:37:28;998.66;;;6.44;65.05
48810;BME280;40070;47.322;18.784;2023-02-04T04:39:30;998.71;;;6.44;64.80
48810;BME280;40070;47.322;18.784;2023-02-04T04:41:32;998.74;;;6.48;64.71
48810;BME280;40070;47.322;18.784;2023-02-04T04:43:35;998.76;;;6.53;64.12
48810;BME280;40070;47.322;18.784;2023-02-04T04:45:37;998.75;;;6.51;64.29
48810;BME280;40070;47.322;18.784;2023-02-04T04:47:39;998.63;;;6.47;64.41
48810;BME280;40070;47.322;18.784;2023-02-04T04:49:42;998.65;;;6.55;64.23
48810;BME280;40070;47.322;18.784;2023-02-04T04:51:44;998.65;;;6.49;63.89
48810;BME280;40070;47.322;18.784;2023-02-04T04:53:46;998.44;;;6.50;63.86
48810;BME280;40070;47.322;18.784;2023-02-04T04:55:49;998.69;;;6.51;63.86
48810;BME280;40070;47.322;18.784;2023-02-04T04:57:51;998.61;;;6.48;63.71
48810;BME280;40070;47.322;18.784;2023-02-04T04:59:53;998.54;;;6.47;63.67
48810;BME280;40070;47.322;18.784;2023-02-04T05:01:56;998.65;;;6.46;63.95
48810;BME280;40070;47.322;18.784;2023-02-04T05:03:58;998.71;;;6.55;63.45
48810;BME280;40070;47.322;18.784;2023-02-04T05:06:01;998.61;;;6.57;63.40
48810;BME280;40070;47.322;18.784;2023-02-04T05:08:03;998.66;;;6.55;63.38
48810;BME280;40070;47.322;18.784;2023-02-04T05:10:05;998.51;;;6.55;63.56
48810;BME280;40070;47.322;18.784;2023-02-04T05:12:08;998.61;;;6.45;63.86
48810;BME280;40070;47.322;18.784;2023-02-04T05:14:10;998.36;;;6.36;63.98
48810;BME280;40070;47.322;18.784;2023-02-04T05:16:13;998.32;;;6.43;63.25
48810;BME280;40070;47.322;18.784;2023-02-04T05:18:15;998.34;;;6.45;63.12
48810;BME280;40070;47.322;18.784;2023-02-04T05:20:17;998.37;;;6.47;63.25
48810;BME280;40070;47.322;18.784;2023-02-04T05:22:20;998.41;;;6.51;63.26
48810;BME280;40070;47.322;18.784;2023-02-04T05:24:22;998.37;;;6.38;63.05
48810;BME280;40070;47.322;18.784;2023-02-04T05:26:25;998.35;;;6.46;63.02
48810;BME280;40070;47.322;18.784;2023-02-04T05:28:27;998.30;;;6.43;62.78
48810;BME280;40070;47.322;18.784;2023-02-04T05:30:29;998.32;;;6.40;62.83
48810;BME280;40070;47.322;18.784;2023-02-04T05:32:32;998.36;;;6.35;63.21
48810;BME280;40070;47.322;18.784;2023-02-04T05:34:34;998.44;;;6.42;63.12
48810;BME280;40070;47.322;18.784;2023-02-04T05:36:36;998.54;;;6.37;62.78
48810;BME280;40070;47.322;18.784;2023-02-04T05:38:39;998.47;;;6.35;63.00
48810;BME280;40070;47.322;18.784;2023-02-04T05:40:41;998.71;;;6.35;63.58
48810;BME280;40070;47.322;18.784;2023-02-04T05:42:43;998.71;;;6.37;63.65
48810;BME280;40070;47.322;18.784;2023-02-04T05:44:46;998.79;;;6.24;64.50
48810;BME280;40070;47.322;18.784;2023-02-04T05:46:48;998.80;;;6.17;64.92
48810;BME280;40070;47.322;18.784;2023-02-04T05:48:50;998.77;;;6.05;65.94
48810;BME280;40070;47.322;18.784;2023-02-04T05:50:53;999.17;;;5.94;66.73
48810;BME280;40070;47.322;18.784;2023-02-04T05:52:55;999.19;;;5.88;66.87
48810;BME280;40070;47.322;18.784;2023-02-04T05:54:57;999.03;;;5.85;66.78
48810;BME280;40070;47.322;18.784;2023-02-04T05:57:00;999.34;;;5.67;67.04
48810;BME280;40070;47.322;18.784;2023-02-04T05:59:02;999.41;;;5.67;66.82
48810;BME280;40070;47.322;18.784;2023-02-04T06:01:05;999.51;;;5.63;65.52
48810;BME280;40070;47.322;18.784;2023-02-04T06:03:07;999.59;;;5.50;65.73
48810;BME280;40070;47.322;18.784;2023-02-04T06:05:10;999.62;;;5.45;66.05
48810;BME280;40070;47.322;18.784;2023-02-04T06:07:12;999.66;;;5.42;66.41
48810;BME280;40070;47.322;18.784;2023-02-04T06:09:14;999.74;;;5.46;65.90
48810;BME280;40070;47.322;18.784;2023-02-04T06:11:17;999.76;;;5.34;65.75
48810;BME280;40070;47.322;18.784;2023-02-04T06:13:19;999.79;;;5.32;64.35
48810;BME280;40070;47.322;18.784;2023-02-04T06:15:21;999.97;;;5.30;64.70
48810;BME280;40070;47.322;18.784;2023-02-04T06:17:24;999.90;;;5.22;64.08
48810;BME280;40070;47.322;18.784;2023-02-04T06:19:26;999.83;;;5.26;63.66
48810;BME280;40070;47.322;18.784;2023-02-04T06:21:28;999.97;;;5.21;63.70
48810;BME280;40070;47.322;18.784;2023-02-04T06:23:31;999.83;;;5.25;63.01
48810;BME280;40070;47.322;18.784;2023-02-04T06:25:33;999.99;;;5.19;63.04
48810;BME280;40070;47.322;18.784;2023-02-04T06:27:36;1000.01;;;5.20;62.37
48810;BME280;40070;47.322;18.784;2023-02-04T06:29:38;1000.01;;;5.20;62.36
48810;BME280;40070;47.322;18.784;2023-02-04T06:31:40;1000.05;;;5.22;62.50
48810;BME280;40070;47.322;18.784;2023-02-04T06:33:43;1000.03;;;5.35;62.60
48810;BME280;40070;47.322;18.784;2023-02-04T06:35:45;1000.07;;;5.30;62.78
48810;BME280;40070;47.322;18.784;2023-02-04T06:37:47;1000.06;;;5.13;62.86
48810;BME280;40070;47.322;18.784;2023-02-04T06:39:50;999.92;;;5.26;62.54
48810;BME280;40070;47.322;18.784;2023-02-04T06:41:52;999.91;;;5.20;62.24
48810;BME280;40070;47.322;18.784;2023-02-04T06:43:55;999.94;;;5.24;62.36
48810;BME280;40070;47.322;18.784;2023-02-04T06:45:57;999.80;;;5.21;62.04
48810;BME280;40070;47.322;18.784;2023-02-04T06:47:59;999.86;;;5.15;62.14
48810;BME280;40070;47.322;18.784;2023-02-04T06:50:02;999.79;;;5.20;62.46
48810;BME280;40070;47.322;18.784;2023-02-04T06:52:04;999.59;;;5.17;62.12
48810;BME280;40070;47.322;18.784;2023-02-04T06:54:06;999.87;;;5.11;61.47
48810;BME280;40070;47.322;18.784;2023-02-04T06:56:09;999.72;;;5.08;61.09
48810;BME280;40070;47.322;18.784;2023-02-04T06:58:11;999.68;;;5.07;60.06
48810;BME280;40070;47.322;18.784;2023-02-04T07:00:14;999.67;;;5.09;59.96
48810;BME280;40070;47.322;18.784;2023-02-04T07:02:16;999.81;;;5.02;59.99
48810;BME280;40070;47.322;18.784;2023-02-04T07:04:18;999.72;;;5.00;59.63
48810;BME280;40070;47.322;18.784;2023-02-04T07:06:21;999.97;;;5.00;60.14
48810;BME280;40070;47.322;18.784;2023-02-04T07:08:23;999.84;;;4.96;58.86
48810;BME280;40070;47.322;18.784;2023-02-04T07:10:25;999.65;;;4.85;58.04
48810;BME280;40070;47.322;18.784;2023-02-04T07:12:28;999.80;;;4.88;57.69
48810;BME280;40070;47.322;18.784;2023-02-04T07:14:30;1000.13;;;4.80;57.86
48810;BME280;40070;47.322;18.784;2023-02-04T07:16:32;1000.14;;;4.83;58.34
48810;BME280;40070;47.322;18.784;2023-02-04T07:18:35;1000.33;;;4.82;58.74
48810;BME280;40070;47.322;18.784;2023-02-04T07:20:37;999.99;;;4.71;58.61
48810;BME280;40070;47.322;18.784;2023-02-04T07:22:39;1000.29;;;4.64;58.54
48810;BME280;40070;47.322;18.784;2023-02-04T07:24:42;1000.38;;;4.46;58.94
48810;BME280;40070;47.322;18.784;2023-02-04T07:26:44;1000.51;;;4.48;59.49
48810;BME280;40070;47.322;18.784;2023-02-04T07:28:47;1000.46;;;4.35;60.14
48810;BME280;40070;47.322;18.784;2023-02-04T07:30:50;1000.57;;;4.24;59.86
48810;BME280;40070;47.322;18.784;2023-02-04T07:32:52;1000.39;;;4.13;59.87
48810;BME280;40070;47.322;18.784;2023-02-04T07:34:54;1000.61;;;4.09;59.88
48810;BME280;40070;47.322;18.784;2023-02-04T07:36:57;1000.62;;;3.90;60.45
48810;BME280;40070;47.322;18.784;2023-02-04T07:38:59;1000.66;;;3.82;60.72
48810;BME280;40070;47.322;18.784;2023-02-04T07:41:01;1000.73;;;3.85;61.09
48810;BME280;40070;47.322;18.784;2023-02-04T07:43:04;1000.90;;;3.95;60.91
48810;BME280;40070;47.322;18.784;2023-02-04T07:45:06;1001.07;;;4.00;60.56
48810;BME280;40070;47.322;18.784;2023-02-04T07:47:09;1000.95;;;3.86;60.39
48810;BME280;40070;47.322;18.784;2023-02-04T07:49:11;1001.04;;;3.81;60.34
48810;BME280;40070;47.322;18.784;2023-02-04T07:51:14;1001.30;;;3.95;60.70
48810;BME280;40070;47.322;18.784;2023-02-04T07:53:16;1001.34;;;3.87;60.34
48810;BME280;40070;47.322;18.784;2023-02-04T07:55:18;1001.51;;;3.92;59.89
48810;BME280;40070;47.322;18.784;2023-02-04T07:57:21;1001.58;;;3.82;59.52
48810;BME280;40070;47.322;18.784;2023-02-04T07:59:23;1001.26;;;3.74;60.00
48810;BME280;40070;47.322;18.784;2023-02-04T08:01:25;1001.66;;;3.68;60.18
48810;BME280;40070;47.322;18.784;2023-02-04T08:03:28;1001.63;;;3.62;60.33
48810;BME280;40070;47.322;18.784;2023-02-04T08:05:30;1001.93;;;3.61;60.17
48810;BME280;40070;47.322;18.784;2023-02-04T08:07:32;1001.62;;;3.58;60.56
48810;BME280;40070;47.322;18.784;2023-02-04T08:09:35;1001.61;;;3.57;60.70
48810;BME280;40070;47.322;18.784;2023-02-04T08:11:37;1001.77;;;3.45;60.75
48810;BME280;40070;47.322;18.784;2023-02-04T08:13:39;1001.78;;;3.43;61.24
48810;BME280;40070;47.322;18.784;2023-02-04T08:15:42;1001.63;;;3.33;61.47
48810;BME280;40070;47.322;18.784;2023-02-04T08:17:44;1001.85;;;3.28;61.63
48810;BME280;40070;47.322;18.784;2023-02-04T08:19:46;1001.83;;;3.31;61.58
48810;BME280;40070;47.322;18.784;2023-02-04T08:21:49;1002.04;;;3.39;61.83
48810;BME280;40070;47.322;18.784;2023-02-04T08:23:51;1001.94;;;3.36;61.34
48810;BME280;40070;47.322;18.784;2023-02-04T08:25:54;1002.10;;;3.46;61.19
48810;BME280;40070;47.322;18.784;2023-02-04T08:27:56;1001.97;;;3.35;60.53
48810;BME280;40070;47.322;18.784;2023-02-04T08:29:58;1002.04;;;3.29;60.56
48810;BME280;40070;47.322;18.784;2023-02-04T08:32:01;1002.14;;;3.24;60.75
48810;BME280;40070;47.322;18.784;2023-02-04T08:34:03;1002.19;;;3.25;60.57
48810;BME280;40070;47.322;18.784;2023-02-04T08:36:06;1002.25;;;3.18;60.47
48810;BME280;40070;47.322;18.784;2023-02-04T08:38:08;1002.40;;;3.17;60.75
48810;BME280;40070;47.322;18.784;2023-02-04T08:40:11;1002.48;;;3.27;60.31
48810;BME280;40070;47.322;18.784;2023-02-04T08:42:14;1002.69;;;3.22;59.92
48810;BME280;40070;47.322;18.784;2023-02-04T08:44:16;1002.51;;;3.28;59.99
48810;BME280;40070;47.322;18.784;2023-02-04T08:46:18;1002.72;;;3.40;59.64
48810;BME280;40070;47.322;18.784;2023-02-04T08:48:21;1002.69;;;3.40;59.27
48810;BME280;40070;47.322;18.784;2023-02-04T08:50:23;1002.42;;;3.32;59.23
48810;BME280;40070;47.322;18.784;2023-02-04T08:52:25;1002.48;;;3.28;59.65
48810;BME280;40070;47.322;18.784;2023-02-04T08:54:28;1002.51;;;3.25;59.86
48810;BME280;40070;47.322;18.784;2023-02-04T08:56:30;1002.57;;;3.27;60.37
48810;BME280;40070;47.322;18.784;2023-02-04T08:58:32;1002.59;;;3.19;58.95
48810;BME280;40070;47.322;18.784;2023-02-04T09:00:35;1002.71;;;3.25;59.30
48810;BME280;40070;47.322;18.784;2023-02-04T09:02:37;1002.47;;;3.22;59.19
48810;BME280;40070;47.322;18.784;2023-02-04T09:04:40;1002.52;;;3.29;59.54
48810;BME280;40070;47.322;18.784;2023-02-04T09:06:42;1002.67;;;3.36;59.40
48810;BME280;40070;47.322;18.784;2023-02-04T09:08:44;1002.58;;;3.48;59.17
48810;BME280;40070;47.322;18.784;2023-02-04T09:10:47;1002.95;;;3.68;59.07
48810;BME280;40070;47.322;18.784;2023-02-04T09:12:49;1002.70;;;3.75;58.29
48810;BME280;40070;47.322;18.784;2023-02-04T09:14:51;1002.79;;;3.84;58.18
48810;BME280;40070;47.322;18.784;2023-02-04T09:16:54;1002.79;;;3.96;57.63
48810;BME280;40070;47.322;18.784;2023-02-04T09:18:56;1002.87;;;4.11;57.22
48810;BME280;40070;47.322;18.784;2023-02-04T09:20:58;1002.86;;;4.12;56.77
48810;BME280;40070;47.322;18.784;2023-02-04T09:23:01;1002.91;;;4.24;56.97
48810;BME280;40070;47.322;18.784;2023-02-04T09:25:03;1003.03;;;4.32;56.48
48810;BME280;40070;47.322;18.784;2023-02-04T09:27:06;1002.96;;;4.30;56.55
48810;BME280;40070;47.322;18.784;2023-02-04T09:29:08;1003.00;;;4.43;56.70
48810;BME280;40070;47.322;18.784;2023-02-04T09:31:11;1002.98;;;4.37;56.00
48810;BME280;40070;47.322;18.784;2023-02-04T09:33:14;1003.18;;;4.48;55.95
48810;BME280;40070;47.322;18.784;2023-02-04T09:35:17;1003.16;;;4.41;55.20
48810;BME280;40070;47.322;18.784;2023-02-04T09:37:19;1003.51;;;4.43;54.73
48810;BME280;40070;47.322;18.784;2023-02-04T09:39:21;1003.17;;;4.46;54.74
48810;BME280;40070;47.322;18.784;2023-02-04T09:41:24;1003.38;;;4.33;53.49
48810;BME280;40070;47.322;18.784;2023-02-04T09:43:28;1003.60;;;4.44;53.61
48810;BME280;40070;47.322;18.784;2023-02-04T09:45:34;1003.34;;;4.13;53.67
48810;BME280;40070;47.322;18.784;2023-02-04T09:47:37;1004.05;;;4.25;55.35
48810;BME280;40070;47.322;18.784;2023-02-04T09:49:39;1003.95;;;4.19;54.78
48810;BME280;40070;47.322;18.784;2023-02-04T09:51:44;1004.26;;;4.04;54.36
48810;BME280;40070;47.322;18.784;2023-02-04T09:53:47;1004.34;;;4.09;54.80
48810;BME280;40070;47.322;18.784;2023-02-04T09:55:51;1004.33;;;3.98;54.50
48810;BME280;40070;47.322;18.784;2023-02-04T09:57:53;1004.33;;;3.97;55.01
48810;BME280;40070;47.322;18.784;2023-02-04T09:59:55;1004.66;;;3.82;54.19
48810;BME280;40070;47.322;18.784;2023-02-04T10:02:03;1004.63;;;3.95;54.42
48810;BME280;40070;47.322;18.784;2023-02-04T10:04:13;1004.72;;;3.94;54.20
48810;BME280;40070;47.322;18.784;2023-02-04T10:06:16;1004.90;;;4.02;54.94
48810;BME280;40070;47.322;18.784;2023-02-04T10:08:26;1005.07;;;3.89;54.85
48810;BME280;40070;47.322;18.784;2023-02-04T10:10:29;1005.15;;;3.76;55.49
48810;BME280;40070;47.322;18.784;2023-02-04T10:12:31;1005.32;;;3.80;55.77
48810;BME280;40070;47.322;18.784;2023-02-04T10:14:34;1005.37;;;3.71;55.05
48810;BME280;40070;47.322;18.784;2023-02-04T10:16:36;1005.48;;;3.71;55.23
48810;BME280;40070;47.322;18.784;2023-02-04T10:18:38;1005.52;;;3.69;55.30
48810;BME280;40070;47.322;18.784;2023-02-04T10:20:41;1005.79;;;3.71;55.22
48810;BME280;40070;47.322;18.784;2023-02-04T10:22:44;1005.87;;;3.66;55.71
48810;BME280;40070;47.322;18.784;2023-02-04T10:24:46;1005.91;;;3.74;55.75
48810;BME280;40070;47.322;18.784;2023-02-04T10:26:49;1006.05;;;3.81;54.83
48810;BME280;40070;47.322;18.784;2023-02-04T10:28:56;1006.03;;;3.83;55.90
48810;BME280;40070;47.322;18.784;2023-02-04T10:30:59;1006.03;;;3.86;55.99
48810;BME280;40070;47.322;18.784;2023-02-04T10:33:10;1006.08;;;3.79;55.66
48810;BME280;40070;47.322;18.784;2023-02-04T10:35:14;1006.17;;;3.72;55.93
48810;BME280;40070;47.322;18.784;2023-02-04T10:37:20;1006.21;;;3.77;56.43
48810;BME280;40070;47.322;18.784;2023-02-04T10:39:27;1006.21;;;3.72;56.08
48810;BME280;40070;47.322;18.784;2023-02-04T10:41:29;1006.27;;;3.66;55.98
48810;BME280;40070;47.322;18.784;2023-02-04T10:43:32;1006.46;;;3.58;56.31
48810;BME280;40070;47.322;18.784;2023-02-04T10:45:34;1006.32;;;3.52;55.48
48810;BME280;40070;47.322;18.784;2023-02-04T10:47:36;1006.41;;;3.59;56.08
48810;BME280;40070;47.322;18.784;2023-02-04T10:49:39;1006.54;;;3.55;55.44
48810;BME280;40070;47.322;18.784;2023-02-04T10:51:41;1006.56;;;3.47;54.97
48810;BME280;40070;47.322;18.784;2023-02-04T10:53:44;1006.63;;;3.49;54.93
48810;BME280;40070;47.322;18.784;2023-02-04T10:55:46;1006.70;;;3.56;54.98
48810;BME280;40070;47.322;18.784;2023-02-04T10:57:50;1006.81;;;3.58;55.57
48810;BME280;40070;47.322;18.784;2023-02-04T10:59:53;1006.81;;;3.61;54.72
48810;BME280;40070;47.322;18.784;2023-02-04T11:01:57;1007.22;;;3.66;54.93
48810;BME280;40070;47.322;18.784;2023-02-04T11:04:01;1007.08;;;3.61;54.38